Quaker, Indiana
Current Conditions -  °F | °C
As of 6:55 PM on Friday 31 Oct 2014 (Local Time) from KPRG Reporting Station
Overcast Overcast  
Wind Chill: 29°   Ceiling: 4500
Heat Index: 40°   Visibility: 10mi
Dew Point: 26°   Wind: 23mph
Humidity: 59%   Direction: 340°NNW
Pressure: 30.19"   Gusts: 36mph
Location:  39.7561°N, 87.4866°W
Report Text: KPRG 312255Z AUTO 34020G31KT 10SM BKN045 OVC060 04/M03 A3019 RMK AO2 T00421032
Loading
Personal Weather Stations






























Interactive Weather Map
Tropical Storm Tracking
New forecast layout! Learn more

10-Day Weather Forecast

Advertisements
Track Severe Weather on mobile